Soddy Daisy, TN (37379)

9:55 PM EST on December 27, 2014 (GMT -0500)
High Ridge | Change Station
CLOSE
Current Station
Personal Weather Station
Location: Soddy Daisy, TN
Elevation: 801 ft
Nearby Weather Stations

Elev 801 ft 35.21 °N, 85.16 °W | Updated 11 minutes ago

Overcast
Overcast
50.6 °F
Feels Like 50.6 °F
N
0.0
Wind Variable Wind from SE
Gusts 0.0 mph

Today
High -- | Low -- °F
--% Chance of Precip.
Yesterday
High -- | Low -- °F
Precip. -- in
7:48 AM 5:35 PM
Waxing Crescent, 43% visible
Pressure 30.18 in
Visibility 10.0 miles
Clouds Mostly Cloudy 3500 ft
Mostly Cloudy 5500 ft
Mostly Cloudy 10000 ft
Dew Point 45 °F
Humidity 81%
Rainfall 0.00 in
Snow Depth Not available.
UV 0 out of 12
Pollen .30 out of 12
Air Quality Not available.
Flu Activity Not available.
METAR KCHA 280153Z 18003KT 10SM BKN035 BKN055 BKN100 12/07 A3018 RMK AO2 SLP219 T01170067

More Conditions Fewer Conditions

Pressure 30.18 in
Visibility 10.0 miles
Clouds Mostly Cloudy 3500 ft
Mostly Cloudy 5500 ft
Mostly Cloudy 10000 ft
Dew Point 45 °F
Humidity 81%
Rainfall 0.00 in
Snow Depth Not available.
UV 0 out of 12
Pollen .30 out of 12
Air Quality Not available.
Flu Activity Not available.
METAR KCHA 280153Z 18003KT 10SM BKN035 BKN055 BKN100 12/07 A3018 RMK AO2 SLP219 T01170067

More Conditions Fewer Conditions

10-Day Weather Forecast

Almanac

Astronomy

Dec. 27, 2014 Rise Set
Actual Time
Civil Twilight
Nautical Twilight
Astronomical Twilight
Moon
Length of Visible Light
Length of Day
Tomorrow will be .
, % of the Moon is Illuminated

Today's Extremes

State Highs State Lows

Community

WunderPhotos

Upload Photos

1,781,144 photos uploaded!

WunderBlogs® & News

Nearby

Air Quality

  Air Quality AQ Index Pollutant
Not available.

Snow Depth

Station Depth Elevation

Earthquake Activity

City Distance Mag. Time & Date
Minimum magnitude displayed is 2.5.

Coastal Water Temperatures

Place Temperature

Nearby Weather Stations